Map

Track Data

SID SEASON NUMBER BASIN SUBBASIN NAME ISO_TIME NATURE LAT LON WMO_WIND WMO_PRES WMO_AGENCY TRACK_TYPE DIST2LAND LANDFALL IFLAG USA_AGENCY USA_ATCF_ID USA_LAT USA_LON USA_RECORD USA_STATUS USA_WIND USA_PRES USA_SSHS USA_R34_NE USA_R34_SE USA_R34_SW USA_R34_NW USA_R50_NE USA_R50_SE USA_R50_SW USA_R50_NW USA_R64_NE USA_R64_SE USA_R64_SW USA_R64_NW USA_POCI USA_ROCI USA_RMW USA_EYE TOKYO_LAT TOKYO_LON TOKYO_GRADE TOKYO_WIND TOKYO_PRES TOKYO_R50_DIR TOKYO_R50_LONG TOKYO_R50_SHORT TOKYO_R30_DIR TOKYO_R30_LONG TOKYO_R30_SHORT TOKYO_LAND CMA_LAT CMA_LON CMA_CAT CMA_WIND CMA_PRES HKO_LAT HKO_LON HKO_CAT HKO_WIND HKO_PRES NEWDELHI_LAT NEWDELHI_LON NEWDELHI_GRADE NEWDELHI_WIND NEWDELHI_PRES NEWDELHI_CI NEWDELHI_DP NEWDELHI_POCI REUNION_LAT REUNION_LON REUNION_TYPE REUNION_WIND REUNION_PRES REUNION_TNUM REUNION_CI REUNION_RMW REUNION_R34_NE REUNION_R34_SE REUNION_R34_SW REUNION_R34_NW REUNION_R50_NE REUNION_R50_SE REUNION_R50_SW REUNION_R50_NW REUNION_R64_NE REUNION_R64_SE REUNION_R64_SW REUNION_R64_NW BOM_LAT BOM_LON BOM_TYPE BOM_WIND BOM_PRES BOM_TNUM BOM_CI BOM_RMW BOM_R34_NE BOM_R34_SE BOM_R34_SW BOM_R34_NW BOM_R50_NE BOM_R50_SE BOM_R50_SW BOM_R50_NW BOM_R64_NE BOM_R64_SE BOM_R64_SW BOM_R64_NW BOM_ROCI BOM_POCI BOM_EYE BOM_POS_METHOD BOM_PRES_METHOD NADI_LAT NADI_LON NADI_CAT NADI_WIND NADI_PRES WELLINGTON_LAT WELLINGTON_LON WELLINGTON_WIND WELLINGTON_PRES DS824_LAT DS824_LON DS824_STAGE DS824_WIND DS824_PRES TD9636_LAT TD9636_LON TD9636_STAGE TD9636_WIND TD9636_PRES TD9635_LAT TD9635_LON TD9635_WIND TD9635_PRES TD9635_ROCI NEUMANN_LAT NEUMANN_LON NEUMANN_CLASS NEUMANN_WIND NEUMANN_PRES MLC_LAT MLC_LON MLC_CLASS MLC_WIND MLC_PRES USA_GUST BOM_GUST BOM_GUST_PER REUNION_GUST REUNION_GUST_PER USA_SEAHGT USA_SEARAD_NE USA_SEARAD_SE USA_SEARAD_SW USA_SEARAD_NW STORM_SPEED STORM_DIR
1991208N20090 1991 43 NI BB NOT_NAMED 1991-07-27 00:00:00 NR 20.5000 90.0000 990 newdelhi main 145 126 ____O_________ -1 20.5000 90.0000 990 0.00000 2 992 11 270
1991208N20090 1991 43 NI BB NOT_NAMED 1991-07-27 03:00:00 NR 20.5006 89.4175 main 126 123 ____P_________ -1 20.5006 89.4175 991 3 994 9 270
1991208N20090 1991 43 NI BB NOT_NAMED 1991-07-27 06:00:00 NR 20.5000 89.0000 25 992 newdelhi main 123 123 ____O_________ -1 20.5000 89.0000 25 992 1.50000 4 996 5 270
1991208N20090 1991 43 NI BB NOT_NAMED 1991-07-27 09:00:00 NR 20.4997 88.8475 main 123 123 ____P_________ -1 20.4997 88.8475 25 990 4 994 2 270
1991208N20090 1991 43 NI BB NOT_NAMED 1991-07-27 12:00:00 NR 20.5000 88.8000 25 988 newdelhi main 123 123 ____O_________ -1 20.5000 88.8000 25 988 1.50000 4 992 2 270
1991208N20090 1991 43 NI BB NOT_NAMED 1991-07-27 15:00:00 NR 20.5000 88.6575 main 124 123 ____P_________ -1 20.5000 88.6575 25 990 4 994 3 270
1991208N20090 1991 43 NI BB NOT_NAMED 1991-07-27 18:00:00 NR 20.5000 88.5000 25 992 newdelhi main 123 123 ____O_________ -1 20.5000 88.5000 25 992 1.50000 4 996 3 270
1991208N20090 1991 43 NI BB NOT_NAMED 1991-07-27 21:00:00 NR 20.5000 88.3575 main 123 123 ____P_________ -1 20.5000 88.3575 25 990 4 994 3 270
1991208N20090 1991 43 NI BB NOT_NAMED 1991-07-28 00:00:00 NR 20.5000 88.2000 25 988 newdelhi main 123 106 ____O_________ -1 20.5000 88.2000 25 988 1.50000 4 992 3 270
1991208N20090 1991 43 NI BB NOT_NAMED 1991-07-28 03:00:00 NR 20.5000 88.0000 main 106 86 ____P_________ -1 20.5000 88.0000 25 987 4 992 4 270
1991208N20090 1991 43 NI BB NOT_NAMED 1991-07-28 06:00:00 NR 20.5000 87.8000 25 987 newdelhi main 86 76 ____O_________ -1 20.5000 87.8000 25 987 1.50000 5 992 3 263
1991208N20090 1991 43 NI BB NOT_NAMED 1991-07-28 09:00:00 NR 20.4624 87.6573 main 76 56 ____P_________ -1 20.4624 87.6573 27 985 5 991 3 270
1991208N20090 1991 43 NI BB NOT_NAMED 1991-07-28 12:00:00 NR 20.5000 87.5000 30 984 newdelhi main 56 31 ____O_________ -1 20.5000 87.5000 30 984 2.00000 6 990 4 304
1991208N20090 1991 43 NI BB NOT_NAMED 1991-07-28 15:00:00 NR 20.7125 87.2651 main 31 10 ____P_________ -1 20.7125 87.2651 30 985 6 991 7 317
1991208N20090 1991 43 NI BB NOT_NAMED 1991-07-28 18:00:00 NR 21.0000 87.0000 30 986 newdelhi main 15 0 ____O_________ -1 21.0000 87.0000 30 986 2.00000 6 992 7 328
1991208N20090 1991 43 NI BB NOT_NAMED 1991-07-28 21:00:00 NR 21.2861 86.8848 main 0 0 ____P_________ -1 21.2861 86.8848 30 986 6 995 7 317
1991208N20090 1991 43 NI BB NOT_NAMED 1991-07-29 00:00:00 NR 21.5000 86.5000 30 986 newdelhi main 0 0 ____O_________ -1 21.5000 86.5000 30 986 0.00000 6 998 13 279
1991208N20090 1991 43 NI BB NOT_NAMED 1991-07-29 03:00:00 NR 21.5014 85.4761 main 0 0 ____P_________ -1 21.5014 85.4761 30 988 6 997 21 270
1991208N20090 1991 43 NI BB NOT_NAMED 1991-07-29 06:00:00 NR 21.5000 84.2000 30 990 newdelhi main 0 0 ____O_________ -1 21.5000 84.2000 30 990 0.00000 6 996 23 276
1991208N20090 1991 43 NI BB NOT_NAMED 1991-07-29 09:00:00 NR 21.7356 83.0039 main 0 0 ____P_________ -1 21.7356 83.0039 30 989 6 995 21 284
1991208N20090 1991 43 NI BB NOT_NAMED 1991-07-29 12:00:00 NR 22.0000 82.0000 30 988 newdelhi main 0 0 ____O_________ -1 22.0000 82.0000 30 988 0.00000 6 994 15 284
1991208N20090 1991 43 NI BB NOT_NAMED 1991-07-29 15:00:00 NR 22.1137 81.4093 main 0 0 ____P_________ -1 22.1137 81.4093 30 989 6 995 9 282
1991208N20090 1991 43 NI BB NOT_NAMED 1991-07-29 18:00:00 NR 22.2000 81.0000 30 990 newdelhi main 0 0 ____O_________ -1 22.2000 81.0000 30 990 0.00000 6 996 9 286
1991208N20090 1991 43 NI BB NOT_NAMED 1991-07-29 21:00:00 NR 22.3498 80.5001 main 0 0 ____P_________ -1 22.3498 80.5001 30 989 6 995 10 288
1991208N20090 1991 43 NI BB NOT_NAMED 1991-07-30 00:00:00 NR 22.5000 80.0000 30 988 newdelhi main 0 0 ____O_________ -1 22.5000 80.0000 30 988 0.00000 6 994 10 285
1991208N20090 1991 43 NI BB NOT_NAMED 1991-07-30 03:00:00 NR 22.5998 79.4998 main 0 0 ____P_________ -1 22.5998 79.4998 30 990 6 996 9 282
1991208N20090 1991 43 NI BB NOT_NAMED 1991-07-30 06:00:00 NR 22.7000 79.0000 30 992 newdelhi main 0 0 ____O_________ -1 22.7000 79.0000 30 992 0.00000 6 998 10 281
1991208N20090 1991 43 NI BB NOT_NAMED 1991-07-30 09:00:00 NR 22.7901 78.4622 main 0 0 ____P_________ -1 22.7901 78.4622 30 991 6 997 10 288
1991208N20090 1991 43 NI AS NOT_NAMED 1991-07-30 12:00:00 NR 23.0000 78.0000 30 990 newdelhi main 0 0 ____O_________ -1 23.0000 78.0000 30 990 0.00000 6 996 10 315
1991208N20090 1991 43 NI AS NOT_NAMED 1991-07-30 15:00:00 NR 23.4847 77.7126 main 0 0 ____P_________ -1 23.4847 77.7126 30 991 6 997 11 335
1991208N20090 1991 43 NI AS NOT_NAMED 1991-07-30 18:00:00 NR 24.0000 77.5000 30 992 newdelhi main 0 0 ____O_________ -1 24.0000 77.5000 30 992 0.00000 6 998 9 333
1991208N20090 1991 43 NI AS NOT_NAMED 1991-07-30 21:00:00 NR 24.3249 77.2499 main 0 0 ____P_________ -1 24.3249 77.2499 27 991 5 996 7 318
1991208N20090 1991 43 NI AS NOT_NAMED 1991-07-31 00:00:00 NR 24.5000 77.0000 25 990 newdelhi main 0 0 ____O_________ -1 24.5000 77.0000 25 990 0.00000 4 994 5 289
1991208N20090 1991 43 NI AS NOT_NAMED 1991-07-31 03:00:00 NR 24.4850 76.7271 main 0 0 ____P_________ -1 24.4850 76.7271 25 991 4 995 5 270
1991208N20090 1991 43 NI AS NOT_NAMED 1991-07-31 06:00:00 NR 24.5000 76.5000 25 992 newdelhi main 0 0 ____O_________ -1 24.5000 76.5000 25 992 0.00000 4 996 5 310
1991208N20090 1991 43 NI AS NOT_NAMED 1991-07-31 09:00:00 NR 24.7899 76.3329 main 0 0 ____P_________ -1 24.7899 76.3329 25 991 4 995 7 345
1991208N20090 1991 43 NI AS NOT_NAMED 1991-07-31 12:00:00 NR 25.2000 76.3000 25 990 newdelhi main 0 0 ____O_________ -1 25.2000 76.3000 25 990 0.00000 4 994 8 8
1991208N20090 1991 43 NI AS NOT_NAMED 1991-07-31 15:00:00 NR 25.5776 76.4622 main 0 0 ____P_________ -1 25.5776 76.4622 25 991 4 995 9 24
1991208N20090 1991 43 NI AS NOT_NAMED 1991-07-31 18:00:00 NR 26.0000 76.7000 25 992 newdelhi main 0 0 ____O_________ -1 26.0000 76.7000 25 992 0.00000 4 996 10 22
1991208N20090 1991 43 NI AS NOT_NAMED 1991-07-31 21:00:00 NR 26.4824 76.8750 main 0 0 ____P_________ -1 26.4824 76.8750 20 993 3 996 10 15
1991208N20090 1991 43 NI AS NOT_NAMED 1991-08-01 00:00:00 NR 27.0000 77.0000 15 994 newdelhi main 0 ____O_________ -1 27.0000 77.0000 15 994 0.00000 2 996 11 12

About IBTrACS Database

This database is a web-friendly format of International Best Track Archive for Climate Stewardship (IBTrACS), a global best track data archive curated by NOAA dating back to 1842.

Updated: 2021-10-21